sensor_id;sensor_type;location;lat;lon;timestamp;pressure;altitude;pressure_sealevel;temperature
19282;BMP180;9774;52.034;5.342;2023-02-27T00:01:44;102739.00;;;7.90
19282;BMP180;9774;52.034;5.342;2023-02-27T00:04:11;102739.00;;;7.90
19282;BMP180;9774;52.034;5.342;2023-02-27T00:06:38;102737.00;;;7.90
19282;BMP180;9774;52.034;5.342;2023-02-27T00:09:06;102737.00;;;7.90
19282;BMP180;9774;52.034;5.342;2023-02-27T00:11:33;102739.00;;;7.90
19282;BMP180;9774;52.034;5.342;2023-02-27T00:14:03;102746.00;;;7.90
19282;BMP180;9774;52.034;5.342;2023-02-27T00:16:30;102744.00;;;7.90
19282;BMP180;9774;52.034;5.342;2023-02-27T00:18:59;102745.00;;;7.90
19282;BMP180;9774;52.034;5.342;2023-02-27T00:21:29;102735.00;;;7.80
19282;BMP180;9774;52.034;5.342;2023-02-27T00:23:57;102733.00;;;7.80
19282;BMP180;9774;52.034;5.342;2023-02-27T00:26:24;102733.00;;;7.80
19282;BMP180;9774;52.034;5.342;2023-02-27T00:28:51;102739.00;;;7.80
19282;BMP180;9774;52.034;5.342;2023-02-27T00:31:19;102733.00;;;7.80
19282;BMP180;9774;52.034;5.342;2023-02-27T00:33:46;102736.00;;;7.70
19282;BMP180;9774;52.034;5.342;2023-02-27T00:36:15;102738.00;;;7.70
19282;BMP180;9774;52.034;5.342;2023-02-27T00:38:42;102732.00;;;7.70
19282;BMP180;9774;52.034;5.342;2023-02-27T00:41:09;102738.00;;;7.70
19282;BMP180;9774;52.034;5.342;2023-02-27T00:43:36;102742.00;;;7.60
19282;BMP180;9774;52.034;5.342;2023-02-27T00:46:04;102732.00;;;7.60
19282;BMP180;9774;52.034;5.342;2023-02-27T00:48:31;102736.00;;;7.60
19282;BMP180;9774;52.034;5.342;2023-02-27T00:50:59;102723.00;;;7.50
19282;BMP180;9774;52.034;5.342;2023-02-27T00:53:27;102720.00;;;7.50
19282;BMP180;9774;52.034;5.342;2023-02-27T00:55:55;102728.00;;;7.50
19282;BMP180;9774;52.034;5.342;2023-02-27T00:58:22;102722.00;;;7.50
19282;BMP180;9774;52.034;5.342;2023-02-27T01:00:49;102715.00;;;7.40
19282;BMP180;9774;52.034;5.342;2023-02-27T01:03:16;102716.00;;;7.40
19282;BMP180;9774;52.034;5.342;2023-02-27T01:05:44;102722.00;;;7.40
19282;BMP180;9774;52.034;5.342;2023-02-27T01:08:11;102719.00;;;7.40
19282;BMP180;9774;52.034;5.342;2023-02-27T01:10:39;102717.00;;;7.30
19282;BMP180;9774;52.034;5.342;2023-02-27T01:13:07;102720.00;;;7.30
19282;BMP180;9774;52.034;5.342;2023-02-27T01:15:34;102717.00;;;7.30
19282;BMP180;9774;52.034;5.342;2023-02-27T01:18:01;102721.00;;;7.30
19282;BMP180;9774;52.034;5.342;2023-02-27T01:20:29;102723.00;;;7.20
19282;BMP180;9774;52.034;5.342;2023-02-27T01:22:56;102723.00;;;7.20
19282;BMP180;9774;52.034;5.342;2023-02-27T01:25:23;102723.00;;;7.20
19282;BMP180;9774;52.034;5.342;2023-02-27T01:27:52;102727.00;;;7.10
19282;BMP180;9774;52.034;5.342;2023-02-27T01:30:19;102726.00;;;7.10
19282;BMP180;9774;52.034;5.342;2023-02-27T01:32:46;102728.00;;;7.10
19282;BMP180;9774;52.034;5.342;2023-02-27T01:35:14;102726.00;;;7.10
19282;BMP180;9774;52.034;5.342;2023-02-27T01:37:41;102721.00;;;7.10
19282;BMP180;9774;52.034;5.342;2023-02-27T01:40:10;102721.00;;;7.00
19282;BMP180;9774;52.034;5.342;2023-02-27T01:42:37;102727.00;;;7.00
19282;BMP180;9774;52.034;5.342;2023-02-27T01:45:28;102717.00;;;6.90
19282;BMP180;9774;52.034;5.342;2023-02-27T01:48:00;102719.00;;;6.90
19282;BMP180;9774;52.034;5.342;2023-02-27T01:50:30;102730.00;;;6.90
19282;BMP180;9774;52.034;5.342;2023-02-27T01:53:00;102712.00;;;6.90
19282;BMP180;9774;52.034;5.342;2023-02-27T01:55:29;102717.00;;;6.90
19282;BMP180;9774;52.034;5.342;2023-02-27T01:57:59;102714.00;;;6.90
19282;BMP180;9774;52.034;5.342;2023-02-27T02:00:28;102711.00;;;6.90
19282;BMP180;9774;52.034;5.342;2023-02-27T02:02:59;102714.00;;;6.80
19282;BMP180;9774;52.034;5.342;2023-02-27T02:05:30;102716.00;;;6.80
19282;BMP180;9774;52.034;5.342;2023-02-27T02:07:58;102712.00;;;6.80
19282;BMP180;9774;52.034;5.342;2023-02-27T02:10:27;102708.00;;;6.80
19282;BMP180;9774;52.034;5.342;2023-02-27T02:12:55;102715.00;;;6.80
19282;BMP180;9774;52.034;5.342;2023-02-27T02:15:35;102716.00;;;6.70
19282;BMP180;9774;52.034;5.342;2023-02-27T02:18:10;102713.00;;;6.70
19282;BMP180;9774;52.034;5.342;2023-02-27T02:30:22;102710.00;;;6.50
19282;BMP180;9774;52.034;5.342;2023-02-27T02:33:16;102708.00;;;6.60
19282;BMP180;9774;52.034;5.342;2023-02-27T02:39:02;102712.00;;;6.50
19282;BMP180;9774;52.034;5.342;2023-02-27T02:41:39;102715.00;;;6.60
19282;BMP180;9774;52.034;5.342;2023-02-27T02:44:18;102712.00;;;6.60
19282;BMP180;9774;52.034;5.342;2023-02-27T02:46:59;102712.00;;;6.60
19282;BMP180;9774;52.034;5.342;2023-02-27T02:49:33;102710.00;;;6.60
19282;BMP180;9774;52.034;5.342;2023-02-27T02:52:05;102719.00;;;6.60
19282;BMP180;9774;52.034;5.342;2023-02-27T02:54:41;102717.00;;;6.60
19282;BMP180;9774;52.034;5.342;2023-02-27T02:57:13;102713.00;;;6.60
19282;BMP180;9774;52.034;5.342;2023-02-27T02:59:46;102717.00;;;6.60
19282;BMP180;9774;52.034;5.342;2023-02-27T03:02:19;102717.00;;;6.60
19282;BMP180;9774;52.034;5.342;2023-02-27T03:04:51;102714.00;;;6.60
19282;BMP180;9774;52.034;5.342;2023-02-27T03:07:22;102722.00;;;6.70
19282;BMP180;9774;52.034;5.342;2023-02-27T03:09:53;102718.00;;;6.70
19282;BMP180;9774;52.034;5.342;2023-02-27T03:12:23;102724.00;;;6.70
19282;BMP180;9774;52.034;5.342;2023-02-27T03:14:54;102722.00;;;6.70
19282;BMP180;9774;52.034;5.342;2023-02-27T03:17:26;102722.00;;;6.70
19282;BMP180;9774;52.034;5.342;2023-02-27T03:19:58;102732.00;;;6.70
19282;BMP180;9774;52.034;5.342;2023-02-27T03:22:31;102728.00;;;6.70
19282;BMP180;9774;52.034;5.342;2023-02-27T03:25:04;102719.00;;;6.70
19282;BMP180;9774;52.034;5.342;2023-02-27T03:27:36;102712.00;;;6.70
19282;BMP180;9774;52.034;5.342;2023-02-27T03:30:07;102705.00;;;6.80
19282;BMP180;9774;52.034;5.342;2023-02-27T03:32:41;102712.00;;;6.70
19282;BMP180;9774;52.034;5.342;2023-02-27T03:35:11;102704.00;;;6.80
19282;BMP180;9774;52.034;5.342;2023-02-27T03:37:47;102701.00;;;6.70
19282;BMP180;9774;52.034;5.342;2023-02-27T03:40:25;102706.00;;;6.70
19282;BMP180;9774;52.034;5.342;2023-02-27T03:42:59;102699.00;;;6.80
19282;BMP180;9774;52.034;5.342;2023-02-27T03:45:33;102705.00;;;6.80
19282;BMP180;9774;52.034;5.342;2023-02-27T03:48:03;102703.00;;;6.80
19282;BMP180;9774;52.034;5.342;2023-02-27T03:50:31;102703.00;;;6.80
19282;BMP180;9774;52.034;5.342;2023-02-27T03:52:59;102712.00;;;6.80
19282;BMP180;9774;52.034;5.342;2023-02-27T03:55:32;102705.00;;;6.80
19282;BMP180;9774;52.034;5.342;2023-02-27T03:58:00;102708.00;;;6.80
19282;BMP180;9774;52.034;5.342;2023-02-27T04:00:28;102714.00;;;6.80
19282;BMP180;9774;52.034;5.342;2023-02-27T04:02:57;102713.00;;;6.80
19282;BMP180;9774;52.034;5.342;2023-02-27T04:05:27;102711.00;;;6.90
19282;BMP180;9774;52.034;5.342;2023-02-27T04:08:21;102717.00;;;6.80
19282;BMP180;9774;52.034;5.342;2023-02-27T04:11:12;102719.00;;;6.80
19282;BMP180;9774;52.034;5.342;2023-02-27T04:19:51;102727.00;;;6.80
19282;BMP180;9774;52.034;5.342;2023-02-27T04:22:30;102730.00;;;6.80
19282;BMP180;9774;52.034;5.342;2023-02-27T04:25:13;102734.00;;;6.80
19282;BMP180;9774;52.034;5.342;2023-02-27T04:27:51;102735.00;;;6.80
19282;BMP180;9774;52.034;5.342;2023-02-27T04:30:27;102735.00;;;6.80
19282;BMP180;9774;52.034;5.342;2023-02-27T04:33:01;102732.00;;;6.80
19282;BMP180;9774;52.034;5.342;2023-02-27T04:35:33;102737.00;;;6.80
19282;BMP180;9774;52.034;5.342;2023-02-27T04:38:08;102742.00;;;6.80
19282;BMP180;9774;52.034;5.342;2023-02-27T04:40:44;102744.00;;;6.70
19282;BMP180;9774;52.034;5.342;2023-02-27T04:43:16;102742.00;;;6.70
19282;BMP180;9774;52.034;5.342;2023-02-27T04:45:46;102751.00;;;6.70
19282;BMP180;9774;52.034;5.342;2023-02-27T04:48:18;102759.00;;;6.70
19282;BMP180;9774;52.034;5.342;2023-02-27T04:50:50;102757.00;;;6.70
19282;BMP180;9774;52.034;5.342;2023-02-27T04:53:23;102752.00;;;6.70
19282;BMP180;9774;52.034;5.342;2023-02-27T04:55:54;102756.00;;;6.70
19282;BMP180;9774;52.034;5.342;2023-02-27T04:58:27;102759.00;;;6.70
19282;BMP180;9774;52.034;5.342;2023-02-27T05:01:00;102760.00;;;6.70
19282;BMP180;9774;52.034;5.342;2023-02-27T05:03:31;102759.00;;;6.70
19282;BMP180;9774;52.034;5.342;2023-02-27T05:06:01;102764.00;;;6.70
19282;BMP180;9774;52.034;5.342;2023-02-27T05:08:32;102761.00;;;6.70
19282;BMP180;9774;52.034;5.342;2023-02-27T05:11:06;102759.00;;;6.70
19282;BMP180;9774;52.034;5.342;2023-02-27T05:13:40;102760.00;;;6.70
19282;BMP180;9774;52.034;5.342;2023-02-27T05:16:15;102774.00;;;6.70
19282;BMP180;9774;52.034;5.342;2023-02-27T05:18:44;102760.00;;;6.70
19282;BMP180;9774;52.034;5.342;2023-02-27T05:21:20;102764.00;;;6.60
19282;BMP180;9774;52.034;5.342;2023-02-27T05:23:56;102765.00;;;6.60
19282;BMP180;9774;52.034;5.342;2023-02-27T05:26:32;102767.00;;;6.60
19282;BMP180;9774;52.034;5.342;2023-02-27T05:29:11;102772.00;;;6.60
19282;BMP180;9774;52.034;5.342;2023-02-27T05:31:47;102772.00;;;6.60
19282;BMP180;9774;52.034;5.342;2023-02-27T05:34:20;102773.00;;;6.60
19282;BMP180;9774;52.034;5.342;2023-02-27T05:36:52;102775.00;;;6.50
19282;BMP180;9774;52.034;5.342;2023-02-27T05:39:23;102776.00;;;6.60
19282;BMP180;9774;52.034;5.342;2023-02-27T05:41:55;102769.00;;;6.50
19282;BMP180;9774;52.034;5.342;2023-02-27T05:44:29;102773.00;;;6.50
19282;BMP180;9774;52.034;5.342;2023-02-27T05:47:00;102771.00;;;6.50
19282;BMP180;9774;52.034;5.342;2023-02-27T05:49:32;102775.00;;;6.50
19282;BMP180;9774;52.034;5.342;2023-02-27T05:52:03;102773.00;;;6.50
19282;BMP180;9774;52.034;5.342;2023-02-27T05:54:36;102772.00;;;6.50
19282;BMP180;9774;52.034;5.342;2023-02-27T05:57:07;102773.00;;;6.50
19282;BMP180;9774;52.034;5.342;2023-02-27T05:59:41;102776.00;;;6.40
19282;BMP180;9774;52.034;5.342;2023-02-27T06:02:11;102783.00;;;6.50
19282;BMP180;9774;52.034;5.342;2023-02-27T06:04:40;102783.00;;;6.50
19282;BMP180;9774;52.034;5.342;2023-02-27T06:07:07;102787.00;;;6.50
19282;BMP180;9774;52.034;5.342;2023-02-27T06:09:35;102795.00;;;6.50
19282;BMP180;9774;52.034;5.342;2023-02-27T06:12:02;102799.00;;;6.50
19282;BMP180;9774;52.034;5.342;2023-02-27T06:14:29;102804.00;;;6.50
19282;BMP180;9774;52.034;5.342;2023-02-27T06:16:58;102796.00;;;6.40
19282;BMP180;9774;52.034;5.342;2023-02-27T06:19:25;102804.00;;;6.40
19282;BMP180;9774;52.034;5.342;2023-02-27T06:21:52;102808.00;;;6.40
19282;BMP180;9774;52.034;5.342;2023-02-27T06:24:19;102814.00;;;6.40
19282;BMP180;9774;52.034;5.342;2023-02-27T06:26:47;102818.00;;;6.40
19282;BMP180;9774;52.034;5.342;2023-02-27T06:29:14;102817.00;;;6.40
19282;BMP180;9774;52.034;5.342;2023-02-27T06:31:42;102826.00;;;6.40
19282;BMP180;9774;52.034;5.342;2023-02-27T06:34:11;102827.00;;;6.40
19282;BMP180;9774;52.034;5.342;2023-02-27T06:36:38;102836.00;;;6.40
19282;BMP180;9774;52.034;5.342;2023-02-27T06:39:05;102839.00;;;6.40
19282;BMP180;9774;52.034;5.342;2023-02-27T06:41:33;102843.00;;;6.40
19282;BMP180;9774;52.034;5.342;2023-02-27T06:44:01;102843.00;;;6.40
19282;BMP180;9774;52.034;5.342;2023-02-27T06:46:28;102845.00;;;6.40
19282;BMP180;9774;52.034;5.342;2023-02-27T06:48:55;102843.00;;;6.40
19282;BMP180;9774;52.034;5.342;2023-02-27T06:51:24;102854.00;;;6.40
19282;BMP180;9774;52.034;5.342;2023-02-27T06:53:51;102848.00;;;6.40
19282;BMP180;9774;52.034;5.342;2023-02-27T06:56:18;102854.00;;;6.40
19282;BMP180;9774;52.034;5.342;2023-02-27T06:58:45;102846.00;;;6.40
19282;BMP180;9774;52.034;5.342;2023-02-27T07:01:13;102843.00;;;6.40
19282;BMP180;9774;52.034;5.342;2023-02-27T07:03:40;102851.00;;;6.40
19282;BMP180;9774;52.034;5.342;2023-02-27T07:06:12;102850.00;;;6.40
19282;BMP180;9774;52.034;5.342;2023-02-27T07:08:40;102849.00;;;6.40
19282;BMP180;9774;52.034;5.342;2023-02-27T07:11:08;102858.00;;;6.50
19282;BMP180;9774;52.034;5.342;2023-02-27T07:13:35;102848.00;;;6.50
19282;BMP180;9774;52.034;5.342;2023-02-27T07:16:02;102855.00;;;6.50
19282;BMP180;9774;52.034;5.342;2023-02-27T07:18:30;102855.00;;;6.50
19282;BMP180;9774;52.034;5.342;2023-02-27T07:20:57;102854.00;;;6.60
19282;BMP180;9774;52.034;5.342;2023-02-27T07:23:24;102851.00;;;6.60
19282;BMP180;9774;52.034;5.342;2023-02-27T07:25:53;102856.00;;;6.60
19282;BMP180;9774;52.034;5.342;2023-02-27T07:28:20;102850.00;;;6.60
19282;BMP180;9774;52.034;5.342;2023-02-27T07:30:47;102858.00;;;6.70
19282;BMP180;9774;52.034;5.342;2023-02-27T07:33:15;102865.00;;;6.70
19282;BMP180;9774;52.034;5.342;2023-02-27T07:35:43;102855.00;;;6.80
19282;BMP180;9774;52.034;5.342;2023-02-27T07:38:10;102862.00;;;6.80
19282;BMP180;9774;52.034;5.342;2023-02-27T07:40:38;102859.00;;;6.80
19282;BMP180;9774;52.034;5.342;2023-02-27T07:43:06;102868.00;;;6.90
19282;BMP180;9774;52.034;5.342;2023-02-27T07:45:33;102860.00;;;7.00
19282;BMP180;9774;52.034;5.342;2023-02-27T07:48:01;102869.00;;;7.00
19282;BMP180;9774;52.034;5.342;2023-02-27T07:50:28;102859.00;;;7.10
19282;BMP180;9774;52.034;5.342;2023-02-27T07:52:55;102861.00;;;7.10
19282;BMP180;9774;52.034;5.342;2023-02-27T07:55:23;102861.00;;;7.20
19282;BMP180;9774;52.034;5.342;2023-02-27T07:57:50;102859.00;;;7.20
19282;BMP180;9774;52.034;5.342;2023-02-27T08:00:19;102862.00;;;7.30
19282;BMP180;9774;52.034;5.342;2023-02-27T08:02:47;102864.00;;;7.30
19282;BMP180;9774;52.034;5.342;2023-02-27T08:05:14;102870.00;;;7.40
19282;BMP180;9774;52.034;5.342;2023-02-27T08:07:41;102877.00;;;7.40
19282;BMP180;9774;52.034;5.342;2023-02-27T08:10:10;102876.00;;;7.50
19282;BMP180;9774;52.034;5.342;2023-02-27T08:12:37;102881.00;;;7.50
19282;BMP180;9774;52.034;5.342;2023-02-27T08:15:06;102888.00;;;7.60
19282;BMP180;9774;52.034;5.342;2023-02-27T08:17:35;102885.00;;;7.60
19282;BMP180;9774;52.034;5.342;2023-02-27T08:20:02;102884.00;;;7.70
19282;BMP180;9774;52.034;5.342;2023-02-27T08:22:32;102889.00;;;7.70
19282;BMP180;9774;52.034;5.342;2023-02-27T08:24:59;102886.00;;;7.80
19282;BMP180;9774;52.034;5.342;2023-02-27T08:27:27;102891.00;;;7.80
19282;BMP180;9774;52.034;5.342;2023-02-27T08:29:54;102899.00;;;7.90
19282;BMP180;9774;52.034;5.342;2023-02-27T08:32:21;102901.00;;;7.90
19282;BMP180;9774;52.034;5.342;2023-02-27T08:34:50;102897.00;;;8.00
19282;BMP180;9774;52.034;5.342;2023-02-27T08:37:17;102900.00;;;8.10
19282;BMP180;9774;52.034;5.342;2023-02-27T08:39:44;102908.00;;;8.10
19282;BMP180;9774;52.034;5.342;2023-02-27T08:42:11;102909.00;;;8.20
19282;BMP180;9774;52.034;5.342;2023-02-27T08:44:40;102907.00;;;8.20
19282;BMP180;9774;52.034;5.342;2023-02-27T08:47:07;102912.00;;;8.30
19282;BMP180;9774;52.034;5.342;2023-02-27T08:49:35;102917.00;;;8.40
19282;BMP180;9774;52.034;5.342;2023-02-27T08:52:03;102926.00;;;8.40
19282;BMP180;9774;52.034;5.342;2023-02-27T08:54:31;102918.00;;;8.50
19282;BMP180;9774;52.034;5.342;2023-02-27T08:56:58;102920.00;;;8.60
19282;BMP180;9774;52.034;5.342;2023-02-27T08:59:25;102912.00;;;8.70
19282;BMP180;9774;52.034;5.342;2023-02-27T09:01:52;102924.00;;;8.80
19282;BMP180;9774;52.034;5.342;2023-02-27T09:04:20;102917.00;;;8.80
19282;BMP180;9774;52.034;5.342;2023-02-27T09:06:47;102929.00;;;8.90
19282;BMP180;9774;52.034;5.342;2023-02-27T09:09:15;102929.00;;;9.00
19282;BMP180;9774;52.034;5.342;2023-02-27T09:11:43;102927.00;;;9.10
19282;BMP180;9774;52.034;5.342;2023-02-27T09:14:11;102924.00;;;9.10
19282;BMP180;9774;52.034;5.342;2023-02-27T09:16:38;102929.00;;;9.20
19282;BMP180;9774;52.034;5.342;2023-02-27T09:19:06;102926.00;;;9.30
19282;BMP180;9774;52.034;5.342;2023-02-27T09:21:33;102935.00;;;9.40
19282;BMP180;9774;52.034;5.342;2023-02-27T09:24:02;102931.00;;;9.50
19282;BMP180;9774;52.034;5.342;2023-02-27T09:26:31;102928.00;;;9.50
19282;BMP180;9774;52.034;5.342;2023-02-27T09:28:58;102926.00;;;9.60
19282;BMP180;9774;52.034;5.342;2023-02-27T09:31:25;102935.00;;;9.80
19282;BMP180;9774;52.034;5.342;2023-02-27T09:33:54;102938.00;;;9.90
19282;BMP180;9774;52.034;5.342;2023-02-27T09:36:22;102946.00;;;9.90
19282;BMP180;9774;52.034;5.342;2023-02-27T09:38:50;102940.00;;;10.00
19282;BMP180;9774;52.034;5.342;2023-02-27T09:41:41;102939.00;;;10.10
19282;BMP180;9774;52.034;5.342;2023-02-27T09:44:20;102934.00;;;10.20
19282;BMP180;9774;52.034;5.342;2023-02-27T09:46:50;102940.00;;;10.40
19282;BMP180;9774;52.034;5.342;2023-02-27T09:49:20;102931.00;;;10.40
19282;BMP180;9774;52.034;5.342;2023-02-27T09:51:49;102935.00;;;10.50
19282;BMP180;9774;52.034;5.342;2023-02-27T09:54:17;102939.00;;;10.70
19282;BMP180;9774;52.034;5.342;2023-02-27T09:56:48;102932.00;;;10.70
19282;BMP180;9774;52.034;5.342;2023-02-27T09:59:25;102933.00;;;10.80
19282;BMP180;9774;52.034;5.342;2023-02-27T10:01:59;102927.00;;;10.90
19282;BMP180;9774;52.034;5.342;2023-02-27T10:04:36;102927.00;;;11.00
19282;BMP180;9774;52.034;5.342;2023-02-27T10:07:12;102934.00;;;11.10
19282;BMP180;9774;52.034;5.342;2023-02-27T10:09:51;102934.00;;;11.20
19282;BMP180;9774;52.034;5.342;2023-02-27T10:12:37;102943.00;;;11.30
19282;BMP180;9774;52.034;5.342;2023-02-27T10:15:11;102937.00;;;11.40
19282;BMP180;9774;52.034;5.342;2023-02-27T10:17:43;102938.00;;;11.50
19282;BMP180;9774;52.034;5.342;2023-02-27T10:20:19;102943.00;;;11.60
19282;BMP180;9774;52.034;5.342;2023-02-27T10:22:50;102923.00;;;11.60
19282;BMP180;9774;52.034;5.342;2023-02-27T10:25:18;102934.00;;;11.70
19282;BMP180;9774;52.034;5.342;2023-02-27T10:27:50;102931.00;;;11.80
19282;BMP180;9774;52.034;5.342;2023-02-27T10:30:22;102932.00;;;11.90
19282;BMP180;9774;52.034;5.342;2023-02-27T10:32:52;102933.00;;;12.00
19282;BMP180;9774;52.034;5.342;2023-02-27T10:35:27;102932.00;;;12.00
19282;BMP180;9774;52.034;5.342;2023-02-27T10:37:59;102930.00;;;12.10
19282;BMP180;9774;52.034;5.342;2023-02-27T10:40:28;102935.00;;;12.20
19282;BMP180;9774;52.034;5.342;2023-02-27T10:43:00;102937.00;;;12.20
19282;BMP180;9774;52.034;5.342;2023-02-27T10:45:28;102924.00;;;12.30
19282;BMP180;9774;52.034;5.342;2023-02-27T10:47:56;102933.00;;;12.40
19282;BMP180;9774;52.034;5.342;2023-02-27T10:50:26;102927.00;;;12.50
19282;BMP180;9774;52.034;5.342;2023-02-27T10:52:56;102930.00;;;12.70
19282;BMP180;9774;52.034;5.342;2023-02-27T10:55:26;102930.00;;;12.80
19282;BMP180;9774;52.034;5.342;2023-02-27T10:57:56;102934.00;;;12.90
19282;BMP180;9774;52.034;5.342;2023-02-27T11:00:31;102924.00;;;13.00
19282;BMP180;9774;52.034;5.342;2023-02-27T11:03:00;102914.00;;;13.10
19282;BMP180;9774;52.034;5.342;2023-02-27T11:05:29;102925.00;;;13.20
19282;BMP180;9774;52.034;5.342;2023-02-27T11:08:12;102919.00;;;13.10
19282;BMP180;9774;52.034;5.342;2023-02-27T11:10:54;102918.00;;;13.10
19282;BMP180;9774;52.034;5.342;2023-02-27T11:13:24;102916.00;;;13.20
19282;BMP180;9774;52.034;5.342;2023-02-27T11:16:05;102905.00;;;13.10
19282;BMP180;9774;52.034;5.342;2023-02-27T11:18:33;102905.00;;;13.20
19282;BMP180;9774;52.034;5.342;2023-02-27T11:21:26;102891.00;;;13.10
19282;BMP180;9774;52.034;5.342;2023-02-27T11:23:56;102886.00;;;13.30
19282;BMP180;9774;52.034;5.342;2023-02-27T11:26:29;102874.00;;;13.30
19282;BMP180;9774;52.034;5.342;2023-02-27T11:29:16;102878.00;;;13.20
19282;BMP180;9774;52.034;5.342;2023-02-27T11:31:46;102895.00;;;13.30
19282;BMP180;9774;52.034;5.342;2023-02-27T11:34:24;102881.00;;;13.20
19282;BMP180;9774;52.034;5.342;2023-02-27T11:36:55;102883.00;;;13.30
19282;BMP180;9774;52.034;5.342;2023-02-27T11:39:26;102880.00;;;13.30
19282;BMP180;9774;52.034;5.342;2023-02-27T11:41:57;102875.00;;;13.30
19282;BMP180;9774;52.034;5.342;2023-02-27T11:44:28;102873.00;;;13.40
19282;BMP180;9774;52.034;5.342;2023-02-27T11:47:13;102872.00;;;13.40
19282;BMP180;9774;52.034;5.342;2023-02-27T11:50:04;102856.00;;;13.50
19282;BMP180;9774;52.034;5.342;2023-02-27T11:52:37;102850.00;;;13.60
19282;BMP180;9774;52.034;5.342;2023-02-27T11:55:13;102856.00;;;13.70
19282;BMP180;9774;52.034;5.342;2023-02-27T11:57:44;102857.00;;;13.80
19282;BMP180;9774;52.034;5.342;2023-02-27T12:00:18;102858.00;;;13.90
19282;BMP180;9774;52.034;5.342;2023-02-27T12:02:53;102854.00;;;13.90
19282;BMP180;9774;52.034;5.342;2023-02-27T12:05:26;102864.00;;;13.90
19282;BMP180;9774;52.034;5.342;2023-02-27T12:07:58;102853.00;;;13.90
19282;BMP180;9774;52.034;5.342;2023-02-27T12:10:28;102848.00;;;14.00
19282;BMP180;9774;52.034;5.342;2023-02-27T12:12:59;102859.00;;;14.00
19282;BMP180;9774;52.034;5.342;2023-02-27T12:15:34;102846.00;;;14.00
19282;BMP180;9774;52.034;5.342;2023-02-27T12:18:10;102842.00;;;14.10
19282;BMP180;9774;52.034;5.342;2023-02-27T12:20:45;102852.00;;;14.10
19282;BMP180;9774;52.034;5.342;2023-02-27T12:23:19;102851.00;;;14.10
19282;BMP180;9774;52.034;5.342;2023-02-27T12:25:51;102853.00;;;14.20
19282;BMP180;9774;52.034;5.342;2023-02-27T12:31:35;102843.00;;;14.20
19282;BMP180;9774;52.034;5.342;2023-02-27T12:34:11;102846.00;;;14.30
19282;BMP180;9774;52.034;5.342;2023-02-27T12:36:41;102839.00;;;14.40
19282;BMP180;9774;52.034;5.342;2023-02-27T12:39:16;102839.00;;;14.40
19282;BMP180;9774;52.034;5.342;2023-02-27T12:42:01;102837.00;;;14.40
19282;BMP180;9774;52.034;5.342;2023-02-27T12:44:41;102834.00;;;14.50
19282;BMP180;9774;52.034;5.342;2023-02-27T12:47:23;102834.00;;;14.50
19282;BMP180;9774;52.034;5.342;2023-02-27T12:50:02;102831.00;;;14.50
19282;BMP180;9774;52.034;5.342;2023-02-27T12:52:39;102822.00;;;14.60
19282;BMP180;9774;52.034;5.342;2023-02-27T12:55:12;102822.00;;;14.60
19282;BMP180;9774;52.034;5.342;2023-02-27T12:57:57;102823.00;;;14.60
19282;BMP180;9774;52.034;5.342;2023-02-27T13:00:31;102823.00;;;14.80
19282;BMP180;9774;52.034;5.342;2023-02-27T13:03:07;102815.00;;;14.80
19282;BMP180;9774;52.034;5.342;2023-02-27T13:05:42;102822.00;;;14.90
19282;BMP180;9774;52.034;5.342;2023-02-27T13:08:39;102822.00;;;15.00
19282;BMP180;9774;52.034;5.342;2023-02-27T13:11:19;102820.00;;;15.20
19282;BMP180;9774;52.034;5.342;2023-02-27T13:13:50;102820.00;;;15.30
19282;BMP180;9774;52.034;5.342;2023-02-27T13:16:23;102828.00;;;15.30
19282;BMP180;9774;52.034;5.342;2023-02-27T13:18:55;102825.00;;;15.30
19282;BMP180;9774;52.034;5.342;2023-02-27T13:21:28;102835.00;;;15.20
19282;BMP180;9774;52.034;5.342;2023-02-27T13:24:07;102829.00;;;15.10
19282;BMP180;9774;52.034;5.342;2023-02-27T13:26:37;102829.00;;;15.10
19282;BMP180;9774;52.034;5.342;2023-02-27T13:29:06;102829.00;;;15.00
19282;BMP180;9774;52.034;5.342;2023-02-27T13:31:43;102828.00;;;14.90
19282;BMP180;9774;52.034;5.342;2023-02-27T13:34:17;102831.00;;;14.80
19282;BMP180;9774;52.034;5.342;2023-02-27T13:36:49;102825.00;;;14.70
19282;BMP180;9774;52.034;5.342;2023-02-27T13:39:52;102820.00;;;14.60
19282;BMP180;9774;52.034;5.342;2023-02-27T13:42:49;102816.00;;;14.50
19282;BMP180;9774;52.034;5.342;2023-02-27T13:45:46;102813.00;;;14.90
19282;BMP180;9774;52.034;5.342;2023-02-27T13:48:39;102814.00;;;15.80
19282;BMP180;9774;52.034;5.342;2023-02-27T13:51:42;102822.00;;;16.20
19282;BMP180;9774;52.034;5.342;2023-02-27T13:54:25;102821.00;;;16.30
19282;BMP180;9774;52.034;5.342;2023-02-27T13:57:19;102819.00;;;16.20
19282;BMP180;9774;52.034;5.342;2023-02-27T13:59:54;102823.00;;;16.10
19282;BMP180;9774;52.034;5.342;2023-02-27T14:02:29;102823.00;;;16.00
19282;BMP180;9774;52.034;5.342;2023-02-27T14:04:59;102817.00;;;15.70
19282;BMP180;9774;52.034;5.342;2023-02-27T14:07:32;102817.00;;;15.70
19282;BMP180;9774;52.034;5.342;2023-02-27T14:10:02;102817.00;;;15.50
19282;BMP180;9774;52.034;5.342;2023-02-27T14:12:33;102812.00;;;15.50
19282;BMP180;9774;52.034;5.342;2023-02-27T14:15:02;102812.00;;;16.00
19282;BMP180;9774;52.034;5.342;2023-02-27T14:17:41;102814.00;;;16.60
19282;BMP180;9774;52.034;5.342;2023-02-27T14:20:11;102810.00;;;17.10
19282;BMP180;9774;52.034;5.342;2023-02-27T14:25:31;102816.00;;;18.10
19282;BMP180;9774;52.034;5.342;2023-02-27T14:27:59;102819.00;;;18.60
19282;BMP180;9774;52.034;5.342;2023-02-27T14:30:34;102821.00;;;18.90
19282;BMP180;9774;52.034;5.342;2023-02-27T14:33:16;102825.00;;;18.90
19282;BMP180;9774;52.034;5.342;2023-02-27T14:35:46;102833.00;;;18.90
19282;BMP180;9774;52.034;5.342;2023-02-27T14:38:19;102819.00;;;18.70
19282;BMP180;9774;52.034;5.342;2023-02-27T14:40:55;102829.00;;;18.40
19282;BMP180;9774;52.034;5.342;2023-02-27T14:43:32;102823.00;;;18.10
19282;BMP180;9774;52.034;5.342;2023-02-27T14:46:15;102824.00;;;17.80
19282;BMP180;9774;52.034;5.342;2023-02-27T14:48:46;102821.00;;;17.50
19282;BMP180;9774;52.034;5.342;2023-02-27T14:51:18;102815.00;;;17.20
19282;BMP180;9774;52.034;5.342;2023-02-27T14:54:01;102819.00;;;16.80
19282;BMP180;9774;52.034;5.342;2023-02-27T14:56:30;102813.00;;;16.70
19282;BMP180;9774;52.034;5.342;2023-02-27T14:58:57;102816.00;;;16.50
19282;BMP180;9774;52.034;5.342;2023-02-27T15:01:25;102813.00;;;16.20
19282;BMP180;9774;52.034;5.342;2023-02-27T15:03:55;102805.00;;;16.10
19282;BMP180;9774;52.034;5.342;2023-02-27T15:06:28;102806.00;;;15.90
19282;BMP180;9774;52.034;5.342;2023-02-27T15:09:00;102809.00;;;15.80